createdAt,value
2023-05-02T00:02:07.158Z,0.00
2023-05-02T00:07:07.308Z,0.00
2023-05-02T00:12:07.126Z,0.00
2023-05-02T00:17:10.032Z,0.00
2023-05-02T00:22:06.909Z,0.00
2023-05-02T00:27:06.847Z,0.00
2023-05-02T00:32:06.765Z,0.00
2023-05-02T00:37:06.912Z,0.00
2023-05-02T00:42:06.633Z,0.00
2023-05-02T00:47:06.709Z,0.00
2023-05-02T00:52:06.499Z,0.00
2023-05-02T00:57:06.545Z,0.00
2023-05-02T01:02:06.509Z,0.00
2023-05-02T01:07:06.297Z,0.00
2023-05-02T01:12:06.274Z,0.00
2023-05-02T01:17:09.331Z,0.00
2023-05-02T01:22:06.132Z,0.00
2023-05-02T01:27:06.078Z,0.00
2023-05-02T01:32:06.214Z,0.00
2023-05-02T01:37:05.914Z,0.00
2023-05-02T01:42:05.831Z,0.00
2023-05-02T01:47:05.887Z,0.00
2023-05-02T01:52:05.819Z,0.00
2023-05-02T01:57:05.835Z,0.00
2023-05-02T02:02:06.613Z,0.00
2023-05-02T02:07:05.619Z,0.00
2023-05-02T02:12:05.461Z,0.00
2023-05-02T02:17:08.517Z,0.00
2023-05-02T02:22:05.361Z,0.00
2023-05-02T02:27:05.439Z,0.00
2023-05-02T02:32:05.205Z,0.00
2023-05-02T02:37:05.269Z,0.00
2023-05-02T02:42:05.034Z,0.00
2023-05-02T02:47:05.057Z,0.00
2023-05-02T02:52:04.997Z,0.00
2023-05-02T02:57:04.915Z,0.00
2023-05-02T03:02:04.965Z,0.00
2023-05-02T03:07:04.827Z,0.00
2023-05-02T03:12:04.615Z,0.00
2023-05-02T03:17:07.945Z,0.00
2023-05-02T03:22:04.684Z,8.00
2023-05-02T03:27:04.607Z,12.00
2023-05-02T03:32:04.455Z,16.00
2023-05-02T03:37:04.347Z,24.00
2023-05-02T03:42:04.386Z,44.00
2023-05-02T03:47:04.384Z,84.00
2023-05-02T03:52:04.133Z,104.00
2023-05-02T03:57:04.071Z,116.00
2023-05-02T04:02:04.025Z,128.00
2023-05-02T04:07:04.159Z,144.00
2023-05-02T04:12:03.846Z,136.00
2023-05-02T04:17:06.890Z,252.00
2023-05-02T04:22:03.741Z,468.00
2023-05-02T04:27:03.888Z,668.00
2023-05-02T04:32:03.631Z,748.00
2023-05-02T04:37:03.562Z,896.00
2023-05-02T04:42:03.552Z,1140.00
2023-05-02T04:47:03.682Z,1732.00
2023-05-02T04:52:03.593Z,1696.00
2023-05-02T04:57:03.440Z,1876.00
2023-05-02T05:02:03.259Z,2252.00
2023-05-02T05:07:03.386Z,3028.00
2023-05-02T05:12:03.069Z,3484.00
2023-05-02T05:17:06.063Z,3164.00
2023-05-02T05:22:02.994Z,3336.00
2023-05-02T05:27:02.998Z,3408.00
2023-05-02T05:32:02.867Z,3208.00
2023-05-02T05:37:02.955Z,2568.00
2023-05-02T05:42:02.743Z,2408.00
2023-05-02T05:47:02.767Z,2508.00
2023-05-02T05:52:02.579Z,2248.00
2023-05-02T05:57:02.511Z,1580.00
2023-05-02T06:02:02.448Z,1964.00
2023-05-02T06:07:02.382Z,2768.00
2023-05-02T06:12:02.268Z,3684.00
2023-05-02T06:17:05.242Z,5196.00
2023-05-02T06:22:02.211Z,4736.00
2023-05-02T06:27:02.121Z,4848.00
2023-05-02T06:32:02.531Z,4200.00
2023-05-02T06:37:01.984Z,5500.00
2023-05-02T06:42:01.937Z,5284.00
2023-05-02T06:47:02.628Z,4292.00
2023-05-02T06:52:01.890Z,4696.00
2023-05-02T06:57:01.961Z,4936.00
2023-05-02T07:02:03.036Z,7040.00
2023-05-02T07:07:01.795Z,7068.00
2023-05-02T07:12:02.237Z,9164.00
2023-05-02T07:17:04.542Z,13068.00
2023-05-02T07:22:01.334Z,15840.00
2023-05-02T07:27:01.346Z,13328.00
2023-05-02T07:32:01.271Z,13188.00
2023-05-02T07:37:01.272Z,9296.00
2023-05-02T07:42:09.111Z,8300.00
2023-05-02T07:47:01.143Z,8560.00
2023-05-02T07:52:01.113Z,6860.00
2023-05-02T07:57:00.876Z,5292.00
2023-05-02T08:02:00.885Z,3748.00
2023-05-02T08:07:00.752Z,3260.00
2023-05-02T08:12:00.819Z,4208.00
2023-05-02T08:17:03.658Z,5632.00
2023-05-02T08:22:00.656Z,7192.00
2023-05-02T08:27:00.606Z,4704.00
2023-05-02T08:32:00.551Z,4496.00
2023-05-02T08:37:00.489Z,6176.00
2023-05-02T08:42:00.290Z,6100.00
2023-05-02T08:47:00.486Z,7080.00
2023-05-02T08:52:00.263Z,8460.00
2023-05-02T08:57:00.679Z,9360.00
2023-05-02T09:02:00.108Z,11192.00
2023-05-02T09:07:00.022Z,10760.00
2023-05-02T09:12:00.151Z,7600.00
2023-05-02T09:17:02.958Z,7128.00
2023-05-02T09:21:59.778Z,4908.00
2023-05-02T09:26:59.745Z,6192.00
2023-05-02T09:31:59.798Z,6920.00
2023-05-02T09:36:59.589Z,10888.00
2023-05-02T09:41:59.713Z,13924.00
2023-05-02T09:46:59.652Z,13924.00
2023-05-02T09:51:59.452Z,16832.00
2023-05-02T09:56:59.358Z,19040.00
2023-05-02T10:01:59.346Z,20160.00
2023-05-02T10:06:59.444Z,20448.00
2023-05-02T10:11:59.163Z,16352.00
2023-05-02T10:17:09.933Z,16352.00
2023-05-02T10:21:59.002Z,11832.00
2023-05-02T10:26:59.114Z,12652.00
2023-05-02T10:31:58.903Z,17184.00
2023-05-02T10:36:59.127Z,16608.00
2023-05-02T10:41:58.702Z,18432.00
2023-05-02T10:46:58.792Z,19936.00
2023-05-02T10:51:58.610Z,15200.00
2023-05-02T10:56:58.713Z,12408.00
2023-05-02T11:01:58.660Z,15616.00
2023-05-02T11:06:58.574Z,16288.00
2023-05-02T11:11:58.309Z,15148.00
2023-05-02T11:17:01.433Z,10380.00
2023-05-02T11:21:58.219Z,11380.00
2023-05-02T11:26:58.232Z,15208.00
2023-05-02T11:31:58.171Z,15220.00
2023-05-02T11:36:58.069Z,15680.00
2023-05-02T11:41:57.922Z,12060.00
2023-05-02T11:46:57.901Z,8860.00
2023-05-02T11:51:57.778Z,8748.00
2023-05-02T11:56:57.787Z,6652.00
2023-05-02T12:01:57.916Z,5628.00
2023-05-02T12:06:58.079Z,6968.00
2023-05-02T12:11:57.935Z,5888.00
2023-05-02T12:17:00.945Z,6000.00
2023-05-02T12:21:57.802Z,7008.00
2023-05-02T12:26:57.657Z,10720.00
2023-05-02T12:31:57.422Z,8912.00
2023-05-02T12:36:57.275Z,8644.00
2023-05-02T12:41:57.149Z,8232.00
2023-05-02T12:47:04.919Z,12628.00
2023-05-02T12:51:57.394Z,16416.00
2023-05-02T12:56:57.055Z,16000.00
2023-05-02T13:03:26.779Z,15300.00
2023-05-02T13:12:45.144Z,17248.00
2023-05-02T13:17:44.264Z,16128.00
2023-05-02T13:22:44.043Z,12240.00
2023-05-02T13:27:43.778Z,13044.00
2023-05-02T13:32:43.922Z,15712.00
2023-05-02T13:37:43.573Z,18688.00
2023-05-02T13:42:43.687Z,15160.00
2023-05-02T13:47:43.628Z,13452.00
2023-05-02T13:52:43.602Z,9352.00
2023-05-02T13:57:43.329Z,6516.00
2023-05-02T14:02:46.477Z,4960.00
2023-05-02T14:07:43.210Z,4828.00
2023-05-02T14:12:43.515Z,5408.00
2023-05-02T14:17:43.229Z,8812.00
2023-05-02T14:22:43.167Z,11616.00
2023-05-02T14:27:50.901Z,9184.00
2023-05-02T14:41:35.469Z,1724.00
2023-05-02T14:46:35.368Z,2052.00
2023-05-02T14:51:35.360Z,2368.00
2023-05-02T14:56:35.299Z,4396.00
2023-05-02T15:01:35.239Z,7048.00
2023-05-02T15:06:35.614Z,6636.00
2023-05-02T15:11:35.202Z,6532.00
2023-05-02T15:16:35.042Z,6212.00
2023-05-02T15:21:45.407Z,7896.00
2023-05-02T15:26:35.064Z,8240.00
2023-05-02T15:31:37.955Z,9068.00
2023-05-02T15:36:34.949Z,9032.00
2023-05-02T15:41:35.413Z,8208.00
2023-05-02T15:46:42.544Z,6892.00
2023-05-02T15:51:34.660Z,5888.00
2023-05-02T15:56:34.511Z,5704.00
2023-05-02T16:01:34.334Z,5088.00
2023-05-02T16:06:34.485Z,4376.00
2023-05-02T16:11:34.180Z,4320.00
2023-05-02T16:16:34.262Z,2960.00
2023-05-02T16:21:34.008Z,1192.00
2023-05-02T16:26:34.484Z,784.00
2023-05-02T16:31:36.955Z,700.00
2023-05-02T16:36:34.041Z,548.00
2023-05-02T16:41:33.840Z,604.00
2023-05-02T16:46:33.696Z,556.00
2023-05-02T16:51:33.606Z,388.00
2023-05-02T16:56:33.610Z,436.00
2023-05-02T17:01:33.767Z,504.00
2023-05-02T17:06:33.802Z,684.00
2023-05-02T17:11:33.728Z,672.00
2023-05-02T17:16:33.296Z,664.00
2023-05-02T17:21:33.430Z,464.00
2023-05-02T17:26:33.117Z,468.00
2023-05-02T17:31:36.360Z,528.00
2023-05-02T17:36:33.079Z,620.00
2023-05-02T17:41:33.150Z,604.00
2023-05-02T17:46:33.002Z,640.00
2023-05-02T17:51:33.695Z,628.00
2023-05-02T17:56:41.390Z,580.00
2023-05-02T18:01:32.772Z,512.00
2023-05-02T18:06:32.709Z,552.00
2023-05-02T18:11:32.577Z,432.00
2023-05-02T18:16:32.790Z,276.00
2023-05-02T18:21:32.673Z,192.00
2023-05-02T18:26:32.374Z,136.00
2023-05-02T18:31:35.415Z,108.00
2023-05-02T18:36:32.258Z,72.00
2023-05-02T18:41:32.345Z,64.00
2023-05-02T18:46:39.996Z,32.00
2023-05-02T18:51:39.403Z,16.00
2023-05-02T18:56:32.236Z,8.00
2023-05-02T19:01:31.985Z,4.00
2023-05-02T19:06:31.957Z,0.00
2023-05-02T19:11:31.843Z,0.00
2023-05-02T19:16:31.856Z,0.00
2023-05-02T19:21:31.726Z,0.00
2023-05-02T19:26:31.745Z,0.00
2023-05-02T19:31:34.721Z,0.00
2023-05-02T19:36:31.550Z,0.00
2023-05-02T19:41:31.525Z,0.00
2023-05-02T19:46:31.445Z,0.00
2023-05-02T19:51:31.373Z,0.00
2023-05-02T19:56:31.204Z,0.00
2023-05-02T20:01:31.412Z,0.00
2023-05-02T20:06:31.243Z,0.00
2023-05-02T20:11:31.085Z,0.00
2023-05-02T20:16:31.185Z,0.00
2023-05-02T20:21:30.948Z,0.00
2023-05-02T20:26:30.782Z,0.00
2023-05-02T20:31:35.009Z,0.00
2023-05-02T20:36:30.651Z,0.00
2023-05-02T20:41:30.674Z,0.00
2023-05-02T20:46:30.647Z,0.00
2023-05-02T20:51:30.525Z,0.00
2023-05-02T20:56:30.460Z,0.00
2023-05-02T21:01:30.936Z,0.00
2023-05-02T21:06:30.333Z,0.00
2023-05-02T21:11:30.424Z,0.00
2023-05-02T21:16:30.192Z,0.00
2023-05-02T21:21:30.124Z,0.00
2023-05-02T21:26:30.017Z,0.00
2023-05-02T21:31:33.010Z,0.00
2023-05-02T21:36:29.868Z,0.00
2023-05-02T21:41:29.846Z,0.00
2023-05-02T21:46:29.749Z,0.00
2023-05-02T21:51:29.893Z,0.00
2023-05-02T21:56:29.620Z,0.00
2023-05-02T22:01:29.707Z,0.00
2023-05-02T22:06:29.535Z,0.00
2023-05-02T22:11:30.131Z,0.00
2023-05-02T22:16:29.430Z,0.00
2023-05-02T22:21:29.480Z,0.00
2023-05-02T22:26:29.224Z,0.00
2023-05-02T22:31:32.355Z,0.00
2023-05-02T22:36:29.062Z,0.00
2023-05-02T22:41:29.093Z,0.00
2023-05-02T22:46:29.195Z,0.00
2023-05-02T22:51:28.969Z,0.00
2023-05-02T22:56:28.985Z,0.00
2023-05-02T23:01:28.876Z,0.00
2023-05-02T23:06:28.874Z,0.00
2023-05-02T23:11:28.859Z,0.00
2023-05-02T23:16:28.595Z,0.00
2023-05-02T23:21:28.596Z,0.00
2023-05-02T23:26:28.425Z,0.00
2023-05-02T23:31:31.642Z,0.00
2023-05-02T23:36:28.272Z,0.00
2023-05-02T23:41:28.275Z,0.00
2023-05-02T23:46:28.148Z,0.00
2023-05-02T23:51:28.145Z,0.00
2023-05-02T23:56:28.021Z,0.00
